PWSweather.com
Personal Weather Stations
Station Observations
WXGLH1124
Southern Oaks, Indianapolis, IN 46217

Southern OaksIndianapolis, IN 46217

Lat: 39.65113, Lon: -86.16866

Elevation: 720

Station Type: Vantage Pro2

High Low Average
Temperature 48.9°F9.4°C 18.1°F-7.7°C 32.4°F0.2°C
Dew Point 41.7°F5.4°C 15.4°F-9.2°C 29.0°F-1.7°C
Winds 9.0 mph 14.5 kmh Calm Calm 1.0 mph SSE1.6 kmh SSE
Wind Gusts 12.0 mph19.3 kmh -- 3.0 mph4.8 kmh
Humidity 92% 75% 87%
Pressure 30.37 in1028.4 mb 30.10 in1019.3 mb -
Precipitation 0.00 in0.0 mm - -
Hour Temp Dew Point Humidity Winds Wind Gusts Pressure Precip Precip Rate Daily Precip Total
12:00 AM 21.5°F-5.8°C 18.2°F-7.7°C 87% Calm Calm -- 30.37 in1028.4 mb 0.00 in0.0 mm 0.00 in0.0 mm 0.00 in0.0 mm
12:05 AM 21.4°F-5.9°C 18.1°F-7.7°C 87% Calm Calm -- 30.37 in1028.4 mb 0.00 in0.0 mm 0.00 in0.0 mm 0.00 in0.0 mm
12:10 AM 21.2°F-6.0°C 17.9°F-7.8°C 87% Calm Calm -- 30.37 in1028.4 mb 0.00 in0.0 mm 0.00 in0.0 mm 0.00 in0.0 mm
12:15 AM 21.0°F-6.1°C 17.8°F-7.9°C 87% Calm Calm -- 30.37 in1028.4 mb 0.00 in0.0 mm 0.00 in0.0 mm 0.00 in0.0 mm
12:19 AM 20.8°F-6.2°C 17.6°F-8.0°C 87% Calm Calm -- 30.37 in1028.4 mb 0.00 in0.0 mm 0.00 in0.0 mm 0.00 in0.0 mm
12:25 AM 20.7°F-6.3°C 17.5°F-8.1°C 87% Calm Calm -- 30.37 in1028.4 mb 0.00 in0.0 mm 0.00 in0.0 mm 0.00 in0.0 mm
12:29 AM 20.5°F-6.4°C 17.3°F-8.2°C 87% Calm Calm -- 30.37 in1028.4 mb 0.00 in0.0 mm 0.00 in0.0 mm 0.00 in0.0 mm
12:35 AM 20.4°F-6.4°C 17.4°F-8.1°C 88% Calm Calm -- 30.37 in1028.4 mb 0.00 in0.0 mm 0.00 in0.0 mm 0.00 in0.0 mm
12:39 AM 20.3°F-6.5°C 17.3°F-8.2°C 88% Calm Calm -- 30.37 in1028.4 mb 0.00 in0.0 mm 0.00 in0.0 mm 0.00 in0.0 mm
12:45 AM 20.2°F-6.6°C 17.2°F-8.2°C 88% Calm Calm -- 30.37 in1028.4 mb 0.00 in0.0 mm 0.00 in0.0 mm 0.00 in0.0 mm
12:50 AM 20.2°F-6.6°C 17.2°F-8.2°C 88% Calm Calm -- 30.37 in1028.4 mb 0.00 in0.0 mm 0.00 in0.0 mm 0.00 in0.0 mm
12:55 AM 20.0°F-6.7°C 17.0°F-8.3°C 88% Calm Calm -- 30.37 in1028.4 mb 0.00 in0.0 mm 0.00 in0.0 mm 0.00 in0.0 mm
01:00 AM 19.9°F-6.7°C 16.9°F-8.4°C 88% Calm Calm -- 30.37 in1028.4 mb 0.00 in0.0 mm 0.00 in0.0 mm 0.00 in0.0 mm
01:05 AM 19.8°F-6.8°C 16.8°F-8.4°C 88% Calm Calm -- 30.37 in1028.4 mb 0.00 in0.0 mm 0.00 in0.0 mm 0.00 in0.0 mm
01:10 AM 19.7°F-6.8°C 16.7°F-8.5°C 88% Calm Calm -- 30.37 in1028.4 mb 0.00 in0.0 mm 0.00 in0.0 mm 0.00 in0.0 mm
01:15 AM 19.6°F-6.9°C 16.6°F-8.6°C 88% Calm Calm -- 30.37 in1028.4 mb 0.00 in0.0 mm 0.00 in0.0 mm 0.00 in0.0 mm
01:20 AM 19.5°F-6.9°C 16.5°F-8.6°C 88% Calm Calm -- 30.37 in1028.4 mb 0.00 in0.0 mm 0.00 in0.0 mm 0.00 in0.0 mm
01:25 AM 19.6°F-6.9°C 16.9°F-8.4°C 89% Calm Calm -- 30.36 in1028.1 mb 0.00 in0.0 mm 0.00 in0.0 mm 0.00 in0.0 mm
01:30 AM 19.5°F-6.9°C 16.8°F-8.4°C 89% Calm Calm -- 30.36 in1028.1 mb 0.00 in0.0 mm 0.00 in0.0 mm 0.00 in0.0 mm
01:35 AM 19.4°F-7.0°C 16.7°F-8.5°C 89% Calm Calm -- 30.36 in1028.1 mb 0.00 in0.0 mm 0.00 in0.0 mm 0.00 in0.0 mm
01:40 AM 19.3°F-7.1°C 16.6°F-8.6°C 89% Calm Calm -- 30.36 in1028.1 mb 0.00 in0.0 mm 0.00 in0.0 mm 0.00 in0.0 mm
01:45 AM 19.1°F-7.2°C 16.4°F-8.7°C 89% Calm Calm -- 30.36 in1028.1 mb 0.00 in0.0 mm 0.00 in0.0 mm 0.00 in0.0 mm
01:50 AM 19.0°F-7.2°C 16.0°F-8.9°C 88% Calm Calm -- 30.36 in1028.1 mb 0.00 in0.0 mm 0.00 in0.0 mm 0.00 in0.0 mm
01:55 AM 18.9°F-7.3°C 16.2°F-8.8°C 89% Calm Calm -- 30.36 in1028.1 mb 0.00 in0.0 mm 0.00 in0.0 mm 0.00 in0.0 mm
02:00 AM 18.8°F-7.3°C 16.1°F-8.8°C 89% Calm Calm -- 30.36 in1028.1 mb 0.00 in0.0 mm 0.00 in0.0 mm 0.00 in0.0 mm
02:04 AM 18.7°F-7.4°C 15.7°F-9.1°C 88% Calm Calm -- 30.36 in1028.1 mb 0.00 in0.0 mm 0.00 in0.0 mm 0.00 in0.0 mm
02:10 AM 18.6°F-7.4°C 15.9°F-8.9°C 89% Calm Calm -- 30.36 in1028.1 mb 0.00 in0.0 mm 0.00 in0.0 mm 0.00 in0.0 mm
02:15 AM 18.5°F-7.5°C 15.8°F-9.0°C 89% Calm Calm -- 30.36 in1028.1 mb 0.00 in0.0 mm 0.00 in0.0 mm 0.00 in0.0 mm
02:20 AM 18.5°F-7.5°C 15.8°F-9.0°C 89% Calm Calm -- 30.36 in1028.1 mb 0.00 in0.0 mm 0.00 in0.0 mm 0.00 in0.0 mm
02:25 AM 18.4°F-7.6°C 15.7°F-9.1°C 89% Calm Calm -- 30.36 in1028.1 mb 0.00 in0.0 mm 0.00 in0.0 mm 0.00 in0.0 mm
02:30 AM 18.3°F-7.6°C 15.6°F-9.1°C 89% Calm Calm -- 30.35 in1027.8 mb 0.00 in0.0 mm 0.00 in0.0 mm 0.00 in0.0 mm
02:35 AM 18.3°F-7.6°C 15.6°F-9.1°C 89% Calm Calm -- 30.35 in1027.8 mb 0.00 in0.0 mm 0.00 in0.0 mm 0.00 in0.0 mm
02:40 AM 18.2°F-7.7°C 15.5°F-9.2°C 89% Calm Calm -- 30.35 in1027.8 mb 0.00 in0.0 mm 0.00 in0.0 mm 0.00 in0.0 mm
02:45 AM 18.2°F-7.7°C 15.5°F-9.2°C 89% Calm Calm -- 30.35 in1027.8 mb 0.00 in0.0 mm 0.00 in0.0 mm 0.00 in0.0 mm
02:50 AM 18.3°F-7.6°C 15.6°F-9.1°C 89% Calm Calm -- 30.35 in1027.8 mb 0.00 in0.0 mm 0.00 in0.0 mm 0.00 in0.0 mm
02:55 AM 18.4°F-7.6°C 16.0°F-8.9°C 90% Calm Calm -- 30.35 in1027.8 mb 0.00 in0.0 mm 0.00 in0.0 mm 0.00 in0.0 mm
03:00 AM 18.4°F-7.6°C 15.7°F-9.1°C 89% Calm Calm -- 30.35 in1027.8 mb 0.00 in0.0 mm 0.00 in0.0 mm 0.00 in0.0 mm
03:05 AM 18.4°F-7.6°C 15.7°F-9.1°C 89% Calm Calm -- 30.35 in1027.8 mb 0.00 in0.0 mm 0.00 in0.0 mm 0.00 in0.0 mm
03:10 AM 18.4°F-7.6°C 15.7°F-9.1°C 89% Calm Calm -- 30.35 in1027.8 mb 0.00 in0.0 mm 0.00 in0.0 mm 0.00 in0.0 mm
03:15 AM 18.4°F-7.6°C 15.7°F-9.1°C 89% Calm Calm -- 30.34 in1027.4 mb 0.00 in0.0 mm 0.00 in0.0 mm 0.00 in0.0 mm
03:20 AM 18.4°F-7.6°C 16.0°F-8.9°C 90% Calm Calm -- 30.34 in1027.4 mb 0.00 in0.0 mm 0.00 in0.0 mm 0.00 in0.0 mm
03:25 AM 18.4°F-7.6°C 16.0°F-8.9°C 90% Calm Calm -- 30.34 in1027.4 mb 0.00 in0.0 mm 0.00 in0.0 mm 0.00 in0.0 mm
03:30 AM 18.4°F-7.6°C 16.0°F-8.9°C 90% Calm Calm -- 30.34 in1027.4 mb 0.00 in0.0 mm 0.00 in0.0 mm 0.00 in0.0 mm
03:35 AM 18.5°F-7.5°C 16.1°F-8.8°C 90% Calm Calm -- 30.34 in1027.4 mb 0.00 in0.0 mm 0.00 in0.0 mm 0.00 in0.0 mm
03:40 AM 18.5°F-7.5°C 16.1°F-8.8°C 90% Calm Calm -- 30.34 in1027.4 mb 0.00 in0.0 mm 0.00 in0.0 mm 0.00 in0.0 mm
03:45 AM 18.4°F-7.6°C 16.0°F-8.9°C 90% Calm Calm -- 30.34 in1027.4 mb 0.00 in0.0 mm 0.00 in0.0 mm 0.00 in0.0 mm
03:50 AM 18.3°F-7.6°C 15.6°F-9.1°C 89% Calm Calm -- 30.34 in1027.4 mb 0.00 in0.0 mm 0.00 in0.0 mm 0.00 in0.0 mm
03:55 AM 18.1°F-7.7°C 15.4°F-9.2°C 89% Calm Calm -- 30.34 in1027.4 mb 0.00 in0.0 mm 0.00 in0.0 mm 0.00 in0.0 mm
04:00 AM 18.1°F-7.7°C 15.4°F-9.2°C 89% Calm Calm -- 30.34 in1027.4 mb 0.00 in0.0 mm 0.00 in0.0 mm 0.00 in0.0 mm
04:05 AM 19.0°F-7.2°C 16.6°F-8.6°C 90% Calm Calm -- 30.33 in1027.1 mb 0.00 in0.0 mm 0.00 in0.0 mm 0.00 in0.0 mm
04:10 AM 19.3°F-7.1°C 16.9°F-8.4°C 90% Calm Calm -- 30.33 in1027.1 mb 0.00 in0.0 mm 0.00 in0.0 mm 0.00 in0.0 mm
04:15 AM 19.9°F-6.7°C 17.7°F-7.9°C 91% Calm Calm -- 30.33 in1027.1 mb 0.00 in0.0 mm 0.00 in0.0 mm 0.00 in0.0 mm
04:20 AM 20.4°F-6.4°C 18.2°F-7.7°C 91% Calm Calm -- 30.34 in1027.4 mb 0.00 in0.0 mm 0.00 in0.0 mm 0.00 in0.0 mm
04:25 AM 20.8°F-6.2°C 18.6°F-7.4°C 91% Calm Calm -- 30.34 in1027.4 mb 0.00 in0.0 mm 0.00 in0.0 mm 0.00 in0.0 mm
04:30 AM 20.9°F-6.2°C 18.7°F-7.4°C 91% Calm Calm -- 30.34 in1027.4 mb 0.00 in0.0 mm 0.00 in0.0 mm 0.00 in0.0 mm
04:35 AM 20.9°F-6.2°C 18.7°F-7.4°C 91% Calm Calm -- 30.34 in1027.4 mb 0.00 in0.0 mm 0.00 in0.0 mm 0.00 in0.0 mm
04:40 AM 20.9°F-6.2°C 18.4°F-7.6°C 90% Calm Calm -- 30.34 in1027.4 mb 0.00 in0.0 mm 0.00 in0.0 mm 0.00 in0.0 mm
04:45 AM 20.9°F-6.2°C 18.4°F-7.6°C 90% Calm Calm -- 30.33 in1027.1 mb 0.00 in0.0 mm 0.00 in0.0 mm 0.00 in0.0 mm
04:50 AM 20.9°F-6.2°C 18.4°F-7.6°C 90% Calm Calm -- 30.33 in1027.1 mb 0.00 in0.0 mm 0.00 in0.0 mm 0.00 in0.0 mm
04:54 AM 21.1°F-6.1°C 18.6°F-7.4°C 90% Calm Calm -- 30.33 in1027.1 mb 0.00 in0.0 mm 0.00 in0.0 mm 0.00 in0.0 mm
05:00 AM 21.2°F-6.0°C 18.7°F-7.4°C 90% Calm Calm -- 30.33 in1027.1 mb 0.00 in0.0 mm 0.00 in0.0 mm 0.00 in0.0 mm
05:05 AM 21.2°F-6.0°C 18.7°F-7.4°C 90% Calm Calm -- 30.32 in1026.8 mb 0.00 in0.0 mm 0.00 in0.0 mm 0.00 in0.0 mm
05:10 AM 21.3°F-5.9°C 18.8°F-7.3°C 90% Calm Calm -- 30.32 in1026.8 mb 0.00 in0.0 mm 0.00 in0.0 mm 0.00 in0.0 mm
05:15 AM 21.3°F-5.9°C 18.8°F-7.3°C 90% Calm Calm -- 30.32 in1026.8 mb 0.00 in0.0 mm 0.00 in0.0 mm 0.00 in0.0 mm
05:20 AM 21.5°F-5.8°C 19.3°F-7.1°C 91% Calm Calm -- 30.32 in1026.8 mb 0.00 in0.0 mm 0.00 in0.0 mm 0.00 in0.0 mm
05:25 AM 21.7°F-5.7°C 19.5°F-6.9°C 91% Calm Calm -- 30.32 in1026.8 mb 0.00 in0.0 mm 0.00 in0.0 mm 0.00 in0.0 mm
05:30 AM 21.8°F-5.7°C 19.6°F-6.9°C 91% Calm Calm -- 30.32 in1026.8 mb 0.00 in0.0 mm 0.00 in0.0 mm 0.00 in0.0 mm
05:35 AM 22.1°F-5.5°C 19.9°F-6.7°C 91% Calm Calm -- 30.32 in1026.8 mb 0.00 in0.0 mm 0.00 in0.0 mm 0.00 in0.0 mm
05:40 AM 22.1°F-5.5°C 19.9°F-6.7°C 91% Calm Calm -- 30.32 in1026.8 mb 0.00 in0.0 mm 0.00 in0.0 mm 0.00 in0.0 mm
05:45 AM 22.0°F-5.6°C 19.8°F-6.8°C 91% Calm Calm -- 30.31 in1026.4 mb 0.00 in0.0 mm 0.00 in0.0 mm 0.00 in0.0 mm
05:49 AM 21.8°F-5.7°C 19.3°F-7.1°C 90% Calm Calm -- 30.31 in1026.4 mb 0.00 in0.0 mm 0.00 in0.0 mm 0.00 in0.0 mm
05:55 AM 21.6°F-5.8°C 19.1°F-7.2°C 90% Calm Calm -- 30.31 in1026.4 mb 0.00 in0.0 mm 0.00 in0.0 mm 0.00 in0.0 mm
06:00 AM 21.7°F-5.7°C 19.5°F-6.9°C 91% Calm Calm -- 30.31 in1026.4 mb 0.00 in0.0 mm 0.00 in0.0 mm 0.00 in0.0 mm
06:04 AM 21.7°F-5.7°C 19.5°F-6.9°C 91% Calm Calm -- 30.31 in1026.4 mb 0.00 in0.0 mm 0.00 in0.0 mm 0.00 in0.0 mm
06:10 AM 21.7°F-5.7°C 19.5°F-6.9°C 91% Calm Calm -- 30.31 in1026.4 mb 0.00 in0.0 mm 0.00 in0.0 mm 0.00 in0.0 mm
06:14 AM 21.8°F-5.7°C 19.6°F-6.9°C 91% Calm Calm -- 30.31 in1026.4 mb 0.00 in0.0 mm 0.00 in0.0 mm 0.00 in0.0 mm
06:19 AM 21.9°F-5.6°C 19.7°F-6.8°C 91% Calm Calm -- 30.31 in1026.4 mb 0.00 in0.0 mm 0.00 in0.0 mm 0.00 in0.0 mm
06:25 AM 22.2°F-5.4°C 20.0°F-6.7°C 91% Calm Calm -- 30.31 in1026.4 mb 0.00 in0.0 mm 0.00 in0.0 mm 0.00 in0.0 mm
06:30 AM 22.4°F-5.3°C 20.2°F-6.6°C 91% Calm Calm -- 30.31 in1026.4 mb 0.00 in0.0 mm 0.00 in0.0 mm 0.00 in0.0 mm
06:35 AM 22.5°F-5.3°C 20.3°F-6.5°C 91% Calm Calm -- 30.31 in1026.4 mb 0.00 in0.0 mm 0.00 in0.0 mm 0.00 in0.0 mm
06:40 AM 22.6°F-5.2°C 20.4°F-6.4°C 91% Calm Calm -- 30.30 in1026.1 mb 0.00 in0.0 mm 0.00 in0.0 mm 0.00 in0.0 mm
06:45 AM 22.5°F-5.3°C 20.3°F-6.5°C 91% Calm Calm -- 30.31 in1026.4 mb 0.00 in0.0 mm 0.00 in0.0 mm 0.00 in0.0 mm
06:50 AM 22.5°F-5.3°C 20.3°F-6.5°C 91% Calm Calm -- 30.31 in1026.4 mb 0.00 in0.0 mm 0.00 in0.0 mm 0.00 in0.0 mm
06:55 AM 22.4°F-5.3°C 20.2°F-6.6°C 91% Calm Calm -- 30.31 in1026.4 mb 0.00 in0.0 mm 0.00 in0.0 mm 0.00 in0.0 mm
07:00 AM 22.4°F-5.3°C 20.2°F-6.6°C 91% Calm Calm -- 30.31 in1026.4 mb 0.00 in0.0 mm 0.00 in0.0 mm 0.00 in0.0 mm
07:05 AM 22.3°F-5.4°C 20.1°F-6.6°C 91% Calm Calm -- 30.31 in1026.4 mb 0.00 in0.0 mm 0.00 in0.0 mm 0.00 in0.0 mm
07:09 AM 22.2°F-5.4°C 20.0°F-6.7°C 91% Calm Calm -- 30.30 in1026.1 mb 0.00 in0.0 mm 0.00 in0.0 mm 0.00 in0.0 mm
07:15 AM 22.2°F-5.4°C 20.0°F-6.7°C 91% 2.0 mph SE3.2 kmh SE 3.0 mph4.8 kmh 30.30 in1026.1 mb 0.00 in0.0 mm 0.00 in0.0 mm 0.00 in0.0 mm
07:20 AM 22.2°F-5.4°C 20.0°F-6.7°C 91% 4.0 mph S6.4 kmh S 5.0 mph8.0 kmh 30.30 in1026.1 mb 0.00 in0.0 mm 0.00 in0.0 mm 0.00 in0.0 mm
07:25 AM 22.1°F-5.5°C 19.9°F-6.7°C 91% 1.0 mph SSE1.6 kmh SSE 5.0 mph8.0 kmh 30.30 in1026.1 mb 0.00 in0.0 mm 0.00 in0.0 mm 0.00 in0.0 mm
07:30 AM 22.0°F-5.6°C 19.8°F-6.8°C 91% 2.0 mph SSE3.2 kmh SSE 4.0 mph6.4 kmh 30.30 in1026.1 mb 0.00 in0.0 mm 0.00 in0.0 mm 0.00 in0.0 mm
07:35 AM 22.0°F-5.6°C 19.8°F-6.8°C 91% 2.0 mph SSE3.2 kmh SSE 4.0 mph6.4 kmh 30.30 in1026.1 mb 0.00 in0.0 mm 0.00 in0.0 mm 0.00 in0.0 mm
07:40 AM 22.0°F-5.6°C 19.8°F-6.8°C 91% 1.0 mph S1.6 kmh S 5.0 mph8.0 kmh 30.29 in1025.7 mb 0.00 in0.0 mm 0.00 in0.0 mm 0.00 in0.0 mm
07:45 AM 21.9°F-5.6°C 19.7°F-6.8°C 91% Calm Calm 1.0 mph1.6 kmh 30.29 in1025.7 mb 0.00 in0.0 mm 0.00 in0.0 mm 0.00 in0.0 mm
07:50 AM 21.7°F-5.7°C 19.5°F-6.9°C 91% Calm Calm -- 30.29 in1025.7 mb 0.00 in0.0 mm 0.00 in0.0 mm 0.00 in0.0 mm
07:55 AM 21.6°F-5.8°C 19.4°F-7.0°C 91% Calm Calm 2.0 mph3.2 kmh 30.29 in1025.7 mb 0.00 in0.0 mm 0.00 in0.0 mm 0.00 in0.0 mm
08:00 AM 21.6°F-5.8°C 19.4°F-7.0°C 91% Calm Calm 2.0 mph3.2 kmh 30.29 in1025.7 mb 0.00 in0.0 mm 0.00 in0.0 mm 0.00 in0.0 mm
08:05 AM 21.5°F-5.8°C 19.3°F-7.1°C 91% Calm Calm -- 30.29 in1025.7 mb 0.00 in0.0 mm 0.00 in0.0 mm 0.00 in0.0 mm
08:10 AM 21.4°F-5.9°C 19.2°F-7.1°C 91% Calm Calm -- 30.28 in1025.4 mb 0.00 in0.0 mm 0.00 in0.0 mm 0.00 in0.0 mm
08:15 AM 21.3°F-5.9°C 19.1°F-7.2°C 91% Calm Calm 2.0 mph3.2 kmh 30.28 in1025.4 mb 0.00 in0.0 mm 0.00 in0.0 mm 0.00 in0.0 mm
08:20 AM 21.3°F-5.9°C 19.1°F-7.2°C 91% Calm Calm 1.0 mph1.6 kmh 30.28 in1025.4 mb 0.00 in0.0 mm 0.00 in0.0 mm 0.00 in0.0 mm
08:25 AM 21.3°F-5.9°C 19.1°F-7.2°C 91% Calm Calm 2.0 mph3.2 kmh 30.28 in1025.4 mb 0.00 in0.0 mm 0.00 in0.0 mm 0.00 in0.0 mm
08:30 AM 21.3°F-5.9°C 19.1°F-7.2°C 91% 1.0 mph SE1.6 kmh SE 3.0 mph4.8 kmh 30.28 in1025.4 mb 0.00 in0.0 mm 0.00 in0.0 mm 0.00 in0.0 mm
08:35 AM 21.5°F-5.8°C 19.3°F-7.1°C 91% 2.0 mph S3.2 kmh S 4.0 mph6.4 kmh 30.28 in1025.4 mb 0.00 in0.0 mm 0.00 in0.0 mm 0.00 in0.0 mm
08:39 AM 21.5°F-5.8°C 19.3°F-7.1°C 91% Calm Calm 2.0 mph3.2 kmh 30.28 in1025.4 mb 0.00 in0.0 mm 0.00 in0.0 mm 0.00 in0.0 mm
08:45 AM 21.5°F-5.8°C 19.3°F-7.1°C 91% Calm Calm -- 30.28 in1025.4 mb 0.00 in0.0 mm 0.00 in0.0 mm 0.00 in0.0 mm
08:50 AM 21.5°F-5.8°C 19.3°F-7.1°C 91% Calm Calm 1.0 mph1.6 kmh 30.28 in1025.4 mb 0.00 in0.0 mm 0.00 in0.0 mm 0.00 in0.0 mm
08:55 AM 21.5°F-5.8°C 19.3°F-7.1°C 91% Calm Calm -- 30.29 in1025.7 mb 0.00 in0.0 mm 0.00 in0.0 mm 0.00 in0.0 mm
08:59 AM 21.5°F-5.8°C 19.3°F-7.1°C 91% Calm Calm 2.0 mph3.2 kmh 30.29 in1025.7 mb 0.00 in0.0 mm 0.00 in0.0 mm 0.00 in0.0 mm
09:05 AM 21.6°F-5.8°C 19.4°F-7.0°C 91% 2.0 mph S3.2 kmh S 2.0 mph3.2 kmh 30.29 in1025.7 mb 0.00 in0.0 mm 0.00 in0.0 mm 0.00 in0.0 mm
09:10 AM 21.7°F-5.7°C 19.5°F-6.9°C 91% 1.0 mph S1.6 kmh S 1.0 mph1.6 kmh 30.29 in1025.7 mb 0.00 in0.0 mm 0.00 in0.0 mm 0.00 in0.0 mm
09:15 AM 21.9°F-5.6°C 19.7°F-6.8°C 91% 3.0 mph S4.8 kmh S 3.0 mph4.8 kmh 30.29 in1025.7 mb 0.00 in0.0 mm 0.00 in0.0 mm 0.00 in0.0 mm
09:19 AM 21.9°F-5.6°C 19.7°F-6.8°C 91% 3.0 mph S4.8 kmh S 3.0 mph4.8 kmh 30.29 in1025.7 mb 0.00 in0.0 mm 0.00 in0.0 mm 0.00 in0.0 mm
09:25 AM 22.0°F-5.6°C 19.8°F-6.8°C 91% 1.0 mph S1.6 kmh S 5.0 mph8.0 kmh 30.29 in1025.7 mb 0.00 in0.0 mm 0.00 in0.0 mm 0.00 in0.0 mm
09:30 AM 22.1°F-5.5°C 19.9°F-6.7°C 91% 1.0 mph S1.6 kmh S 5.0 mph8.0 kmh 30.29 in1025.7 mb 0.00 in0.0 mm 0.00 in0.0 mm 0.00 in0.0 mm
09:35 AM 22.2°F-5.4°C 20.0°F-6.7°C 91% 1.0 mph S1.6 kmh S 4.0 mph6.4 kmh 30.29 in1025.7 mb 0.00 in0.0 mm 0.00 in0.0 mm 0.00 in0.0 mm
09:40 AM 22.3°F-5.4°C 20.1°F-6.6°C 91% Calm Calm 3.0 mph4.8 kmh 30.29 in1025.7 mb 0.00 in0.0 mm 0.00 in0.0 mm 0.00 in0.0 mm
09:45 AM 22.5°F-5.3°C 20.3°F-6.5°C 91% Calm Calm 3.0 mph4.8 kmh 30.29 in1025.7 mb 0.00 in0.0 mm 0.00 in0.0 mm 0.00 in0.0 mm
09:50 AM 22.6°F-5.2°C 20.4°F-6.4°C 91% 1.0 mph S1.6 kmh S 3.0 mph4.8 kmh 30.29 in1025.7 mb 0.00 in0.0 mm 0.00 in0.0 mm 0.00 in0.0 mm
09:54 AM 22.8°F-5.1°C 20.8°F-6.2°C 92% Calm Calm 4.0 mph6.4 kmh 30.29 in1025.7 mb 0.00 in0.0 mm 0.00 in0.0 mm 0.00 in0.0 mm
10:00 AM 23.0°F-5.0°C 21.0°F-6.1°C 92% 1.0 mph S1.6 kmh S 3.0 mph4.8 kmh 30.29 in1025.7 mb 0.00 in0.0 mm 0.00 in0.0 mm 0.00 in0.0 mm
10:05 AM 23.3°F-4.8°C 21.3°F-5.9°C 92% Calm Calm 4.0 mph6.4 kmh 30.29 in1025.7 mb 0.00 in0.0 mm 0.00 in0.0 mm 0.00 in0.0 mm
10:09 AM 23.6°F-4.7°C 21.6°F-5.8°C 92% Calm Calm 1.0 mph1.6 kmh 30.29 in1025.7 mb 0.00 in0.0 mm 0.00 in0.0 mm 0.00 in0.0 mm
10:15 AM 24.1°F-4.4°C 22.1°F-5.5°C 92% 3.0 mph S4.8 kmh S 3.0 mph4.8 kmh 30.29 in1025.7 mb 0.00 in0.0 mm 0.00 in0.0 mm 0.00 in0.0 mm
10:20 AM 24.4°F-4.2°C 22.4°F-5.3°C 92% 1.0 mph S1.6 kmh S 3.0 mph4.8 kmh 30.29 in1025.7 mb 0.00 in0.0 mm 0.00 in0.0 mm 0.00 in0.0 mm
10:24 AM 24.9°F-3.9°C 22.9°F-5.1°C 92% 1.0 mph S1.6 kmh S 3.0 mph4.8 kmh 30.28 in1025.4 mb 0.00 in0.0 mm 0.00 in0.0 mm 0.00 in0.0 mm
10:30 AM 25.5°F-3.6°C 23.5°F-4.7°C 92% Calm Calm 4.0 mph6.4 kmh 30.29 in1025.7 mb 0.00 in0.0 mm 0.00 in0.0 mm 0.00 in0.0 mm
10:35 AM 26.1°F-3.3°C 24.1°F-4.4°C 92% 1.0 mph SSE1.6 kmh SSE 2.0 mph3.2 kmh 30.29 in1025.7 mb 0.00 in0.0 mm 0.00 in0.0 mm 0.00 in0.0 mm
10:40 AM 26.6°F-3.0°C 24.6°F-4.1°C 92% 1.0 mph S1.6 kmh S 4.0 mph6.4 kmh 30.29 in1025.7 mb 0.00 in0.0 mm 0.00 in0.0 mm 0.00 in0.0 mm
10:45 AM 27.1°F-2.7°C 25.1°F-3.8°C 92% Calm Calm 1.0 mph1.6 kmh 30.29 in1025.7 mb 0.00 in0.0 mm 0.00 in0.0 mm 0.00 in0.0 mm
10:49 AM 27.6°F-2.4°C 25.6°F-3.6°C 92% Calm Calm 2.0 mph3.2 kmh 30.29 in1025.7 mb 0.00 in0.0 mm 0.00 in0.0 mm 0.00 in0.0 mm
10:55 AM 28.3°F-2.1°C 26.3°F-3.2°C 92% 4.0 mph S6.4 kmh S 4.0 mph6.4 kmh 30.29 in1025.7 mb 0.00 in0.0 mm 0.00 in0.0 mm 0.00 in0.0 mm
11:00 AM 29.0°F-1.7°C 27.0°F-2.8°C 92% 2.0 mph S3.2 kmh S 5.0 mph8.0 kmh 30.29 in1025.7 mb 0.00 in0.0 mm 0.00 in0.0 mm 0.00 in0.0 mm
11:05 AM 29.7°F-1.3°C 27.7°F-2.4°C 92% 4.0 mph S6.4 kmh S 4.0 mph6.4 kmh 30.29 in1025.7 mb 0.00 in0.0 mm 0.00 in0.0 mm 0.00 in0.0 mm
11:09 AM 30.2°F-1.0°C 28.2°F-2.1°C 92% 1.0 mph SW1.6 kmh SW 4.0 mph6.4 kmh 30.29 in1025.7 mb 0.00 in0.0 mm 0.00 in0.0 mm 0.00 in0.0 mm
11:15 AM 30.7°F-0.7°C 28.7°F-1.8°C 92% 3.0 mph S4.8 kmh S 5.0 mph8.0 kmh 30.29 in1025.7 mb 0.00 in0.0 mm 0.00 in0.0 mm 0.00 in0.0 mm
11:19 AM 31.1°F-0.5°C 29.1°F-1.6°C 92% 6.0 mph S9.7 kmh S 6.0 mph9.7 kmh 30.29 in1025.7 mb 0.00 in0.0 mm 0.00 in0.0 mm 0.00 in0.0 mm
11:25 AM 31.5°F-0.3°C 29.5°F-1.4°C 92% 1.0 mph S1.6 kmh S 5.0 mph8.0 kmh 30.29 in1025.7 mb 0.00 in0.0 mm 0.00 in0.0 mm 0.00 in0.0 mm
11:30 AM 31.9°F-0.1°C 29.8°F-1.2°C 92% 2.0 mph S3.2 kmh S 5.0 mph8.0 kmh 30.29 in1025.7 mb 0.00 in0.0 mm 0.00 in0.0 mm 0.00 in0.0 mm
11:35 AM 32.1°F0.1°C 30.0°F-1.1°C 92% 5.0 mph S8.0 kmh S 6.0 mph9.7 kmh 30.29 in1025.7 mb 0.00 in0.0 mm 0.00 in0.0 mm 0.00 in0.0 mm
11:40 AM 32.6°F0.3°C 30.5°F-0.8°C 92% 7.0 mph SSE11.3 kmh SSE 7.0 mph11.3 kmh 30.29 in1025.7 mb 0.00 in0.0 mm 0.00 in0.0 mm 0.00 in0.0 mm
11:44 AM 32.8°F0.4°C 30.5°F-0.8°C 91% 3.0 mph S4.8 kmh S 7.0 mph11.3 kmh 30.28 in1025.4 mb 0.00 in0.0 mm 0.00 in0.0 mm 0.00 in0.0 mm
11:50 AM 33.1°F0.6°C 30.8°F-0.7°C 91% 3.0 mph S4.8 kmh S 6.0 mph9.7 kmh 30.28 in1025.4 mb 0.00 in0.0 mm 0.00 in0.0 mm 0.00 in0.0 mm
11:55 AM 33.5°F0.8°C 30.9°F-0.6°C 90% 3.0 mph SSE4.8 kmh SSE 6.0 mph9.7 kmh 30.28 in1025.4 mb 0.00 in0.0 mm 0.00 in0.0 mm 0.00 in0.0 mm
12:00 PM 33.8°F1.0°C 31.2°F-0.4°C 90% 3.0 mph S4.8 kmh S 8.0 mph12.9 kmh 30.28 in1025.4 mb 0.00 in0.0 mm 0.00 in0.0 mm 0.00 in0.0 mm
12:05 PM 34.1°F1.2°C 31.2°F-0.4°C 89% 4.0 mph S6.4 kmh S 5.0 mph8.0 kmh 30.27 in1025.1 mb 0.00 in0.0 mm 0.00 in0.0 mm 0.00 in0.0 mm
12:10 PM 34.4°F1.3°C 31.5°F-0.3°C 89% 1.0 mph S1.6 kmh S 5.0 mph8.0 kmh 30.28 in1025.4 mb 0.00 in0.0 mm 0.00 in0.0 mm 0.00 in0.0 mm
12:14 PM 34.7°F1.5°C 31.5°F-0.3°C 88% 1.0 mph S1.6 kmh S 5.0 mph8.0 kmh 30.28 in1025.4 mb 0.00 in0.0 mm 0.00 in0.0 mm 0.00 in0.0 mm
12:20 PM 35.1°F1.7°C 31.9°F-0.1°C 88% 3.0 mph S4.8 kmh S 5.0 mph8.0 kmh 30.27 in1025.1 mb 0.01 in0.3 mm 0.10 in2.5 mm 0.01 in0.3 mm
12:25 PM 35.4°F1.9°C 32.2°F0.1°C 88% 2.0 mph S3.2 kmh S 5.0 mph8.0 kmh 30.27 in1025.1 mb 0.01 in0.3 mm 0.00 in0.0 mm 0.01 in0.3 mm
12:30 PM 35.7°F2.1°C 32.5°F0.3°C 88% 1.0 mph SSW1.6 kmh SSW 4.0 mph6.4 kmh 30.27 in1025.1 mb 0.01 in0.3 mm 0.00 in0.0 mm 0.01 in0.3 mm
12:35 PM 35.9°F2.2°C 32.4°F0.2°C 87% Calm Calm 2.0 mph3.2 kmh 30.27 in1025.1 mb 0.01 in0.3 mm 0.00 in0.0 mm 0.01 in0.3 mm
12:39 PM 36.1°F2.3°C 32.6°F0.3°C 87% 1.0 mph S1.6 kmh S 4.0 mph6.4 kmh 30.27 in1025.1 mb 0.01 in0.3 mm 0.00 in0.0 mm 0.01 in0.3 mm
12:45 PM 36.2°F2.3°C 32.4°F0.2°C 86% Calm Calm 2.0 mph3.2 kmh 30.27 in1025.1 mb 0.01 in0.3 mm 0.00 in0.0 mm 0.01 in0.3 mm
12:50 PM 36.2°F2.3°C 32.4°F0.2°C 86% Calm Calm 3.0 mph4.8 kmh 30.27 in1025.1 mb 0.02 in0.5 mm 0.12 in3.0 mm 0.02 in0.5 mm
12:55 PM 36.2°F2.3°C 32.4°F0.2°C 86% 2.0 mph S3.2 kmh S 3.0 mph4.8 kmh 30.27 in1025.1 mb 0.02 in0.5 mm 0.00 in0.0 mm 0.02 in0.5 mm
01:00 PM 36.4°F2.4°C 32.6°F0.3°C 86% 1.0 mph S1.6 kmh S 2.0 mph3.2 kmh 30.26 in1024.7 mb 0.02 in0.5 mm 0.00 in0.0 mm 0.02 in0.5 mm
01:04 PM 36.5°F2.5°C 32.7°F0.4°C 86% 1.0 mph S1.6 kmh S 3.0 mph4.8 kmh 30.26 in1024.7 mb 0.02 in0.5 mm 0.00 in0.0 mm 0.02 in0.5 mm
01:10 PM 36.6°F2.6°C 32.8°F0.4°C 86% 2.0 mph S3.2 kmh S 3.0 mph4.8 kmh 30.26 in1024.7 mb 0.02 in0.5 mm 0.00 in0.0 mm 0.02 in0.5 mm
01:15 PM 36.8°F2.7°C 33.0°F0.6°C 86% 1.0 mph S1.6 kmh S 5.0 mph8.0 kmh 30.25 in1024.4 mb 0.02 in0.5 mm 0.00 in0.0 mm 0.02 in0.5 mm
01:20 PM 37.1°F2.8°C 33.3°F0.7°C 86% 2.0 mph SE3.2 kmh SE 4.0 mph6.4 kmh 30.25 in1024.4 mb 0.02 in0.5 mm 0.00 in0.0 mm 0.02 in0.5 mm
01:25 PM 37.7°F3.2°C 33.9°F1.1°C 86% 1.0 mph SE1.6 kmh SE 3.0 mph4.8 kmh 30.25 in1024.4 mb 0.02 in0.5 mm 0.00 in0.0 mm 0.02 in0.5 mm
01:30 PM 38.4°F3.6°C 34.6°F1.4°C 86% 2.0 mph SSE3.2 kmh SSE 4.0 mph6.4 kmh 30.24 in1024.0 mb 0.02 in0.5 mm 0.00 in0.0 mm 0.02 in0.5 mm
01:35 PM 39.0°F3.9°C 34.9°F1.6°C 85% 4.0 mph S6.4 kmh S 5.0 mph8.0 kmh 30.24 in1024.0 mb 0.02 in0.5 mm 0.00 in0.0 mm 0.02 in0.5 mm
01:40 PM 39.4°F4.1°C 35.3°F1.8°C 85% 3.0 mph S4.8 kmh S 5.0 mph8.0 kmh 30.24 in1024.0 mb 0.02 in0.5 mm 0.00 in0.0 mm 0.02 in0.5 mm
01:45 PM 39.9°F4.4°C 35.5°F1.9°C 84% 1.0 mph SE1.6 kmh SE 5.0 mph8.0 kmh 30.24 in1024.0 mb 0.02 in0.5 mm 0.00 in0.0 mm 0.02 in0.5 mm
01:50 PM 40.4°F4.7°C 36.0°F2.2°C 84% 2.0 mph S3.2 kmh S 5.0 mph8.0 kmh 30.24 in1024.0 mb 0.01 in0.3 mm 0.00 in0.0 mm 0.02 in0.5 mm
01:54 PM 40.7°F4.8°C 36.0°F2.2°C 83% 1.0 mph S1.6 kmh S 6.0 mph9.7 kmh 30.23 in1023.7 mb 0.01 in0.3 mm 0.00 in0.0 mm 0.02 in0.5 mm
01:59 PM 41.0°F5.0°C 36.2°F2.3°C 83% 2.0 mph S3.2 kmh S 5.0 mph8.0 kmh 30.23 in1023.7 mb 0.01 in0.3 mm 0.00 in0.0 mm 0.02 in0.5 mm
02:05 PM 41.2°F5.1°C 36.4°F2.4°C 83% 3.0 mph S4.8 kmh S 4.0 mph6.4 kmh 30.23 in1023.7 mb 0.02 in0.5 mm 0.01 in0.3 mm 0.03 in0.8 mm
02:10 PM 41.3°F5.2°C 36.2°F2.3°C 82% 2.0 mph SW3.2 kmh SW 5.0 mph8.0 kmh 30.23 in1023.7 mb 0.02 in0.5 mm 0.00 in0.0 mm 0.03 in0.8 mm
02:15 PM 41.3°F5.2°C 36.2°F2.3°C 82% 1.0 mph S1.6 kmh S 5.0 mph8.0 kmh 30.23 in1023.7 mb 0.02 in0.5 mm 0.00 in0.0 mm 0.03 in0.8 mm
02:20 PM 41.3°F5.2°C 36.2°F2.3°C 82% Calm Calm 4.0 mph6.4 kmh 30.23 in1023.7 mb 0.02 in0.5 mm 0.00 in0.0 mm 0.03 in0.8 mm
02:25 PM 41.4°F5.2°C 36.3°F2.4°C 82% Calm Calm 4.0 mph6.4 kmh 30.23 in1023.7 mb 0.01 in0.3 mm 0.00 in0.0 mm 0.03 in0.8 mm
02:30 PM 41.5°F5.3°C 36.4°F2.4°C 82% Calm Calm 3.0 mph4.8 kmh 30.22 in1023.4 mb 0.01 in0.3 mm 0.00 in0.0 mm 0.03 in0.8 mm
02:35 PM 41.8°F5.4°C 36.4°F2.4°C 81% Calm Calm 2.0 mph3.2 kmh 30.22 in1023.4 mb 0.01 in0.3 mm 0.00 in0.0 mm 0.03 in0.8 mm
02:40 PM 42.0°F5.6°C 36.9°F2.7°C 82% 2.0 mph SW3.2 kmh SW 4.0 mph6.4 kmh 30.22 in1023.4 mb 0.01 in0.3 mm 0.00 in0.0 mm 0.03 in0.8 mm
02:45 PM 42.4°F5.8°C 37.3°F2.9°C 82% 3.0 mph SW4.8 kmh SW 5.0 mph8.0 kmh 30.22 in1023.4 mb 0.01 in0.3 mm 0.00 in0.0 mm 0.03 in0.8 mm
02:50 PM 42.8°F6.0°C 37.7°F3.2°C 82% 2.0 mph SW3.2 kmh SW 3.0 mph4.8 kmh 30.21 in1023.0 mb 0.01 in0.3 mm 0.00 in0.0 mm 0.03 in0.8 mm
02:55 PM 43.1°F6.2°C 38.0°F3.3°C 82% 4.0 mph SW6.4 kmh SW 6.0 mph9.7 kmh 30.21 in1023.0 mb 0.01 in0.3 mm 0.00 in0.0 mm 0.03 in0.8 mm
03:00 PM 43.4°F6.3°C 38.6°F3.7°C 83% 9.0 mph SW14.5 kmh SW 12.0 mph19.3 kmh 30.21 in1023.0 mb 0.01 in0.3 mm 0.00 in0.0 mm 0.03 in0.8 mm
03:05 PM 43.6°F6.4°C 38.8°F3.8°C 83% 4.0 mph SW6.4 kmh SW 11.0 mph17.7 kmh 30.20 in1022.7 mb 0.00 in0.0 mm 0.00 in0.0 mm 0.03 in0.8 mm
03:09 PM 43.8°F6.6°C 39.3°F4.1°C 84% 3.0 mph SW4.8 kmh SW 9.0 mph14.5 kmh 30.20 in1022.7 mb 0.00 in0.0 mm 0.00 in0.0 mm 0.03 in0.8 mm
03:14 PM 43.8°F6.6°C 39.3°F4.1°C 84% 5.0 mph SW8.0 kmh SW 9.0 mph14.5 kmh 30.20 in1022.7 mb 0.00 in0.0 mm 0.00 in0.0 mm 0.03 in0.8 mm
03:20 PM 44.0°F6.7°C 39.5°F4.2°C 84% 4.0 mph S6.4 kmh S 7.0 mph11.3 kmh 30.19 in1022.4 mb 0.00 in0.0 mm 0.00 in0.0 mm 0.03 in0.8 mm
03:24 PM 44.2°F6.8°C 39.7°F4.3°C 84% 4.0 mph WSW6.4 kmh WSW 8.0 mph12.9 kmh 30.19 in1022.4 mb 0.00 in0.0 mm 0.00 in0.0 mm 0.03 in0.8 mm
03:30 PM 44.3°F6.8°C 39.8°F4.3°C 84% 4.0 mph SW6.4 kmh SW 6.0 mph9.7 kmh 30.19 in1022.4 mb 0.00 in0.0 mm 0.00 in0.0 mm 0.03 in0.8 mm
03:35 PM 44.6°F7.0°C 40.1°F4.5°C 84% 7.0 mph SW11.3 kmh SW 8.0 mph12.9 kmh 30.19 in1022.4 mb 0.00 in0.0 mm 0.00 in0.0 mm 0.03 in0.8 mm
03:40 PM 44.7°F7.1°C 39.9°F4.4°C 83% 3.0 mph SW4.8 kmh SW 7.0 mph11.3 kmh 30.18 in1022.0 mb 0.00 in0.0 mm 0.00 in0.0 mm 0.03 in0.8 mm
03:44 PM 45.0°F7.2°C 39.9°F4.4°C 82% 4.0 mph SW6.4 kmh SW 10.0 mph16.1 kmh 30.18 in1022.0 mb 0.00 in0.0 mm 0.00 in0.0 mm 0.03 in0.8 mm
03:49 PM 44.9°F7.2°C 40.1°F4.5°C 83% 3.0 mph SSE4.8 kmh SSE 7.0 mph11.3 kmh 30.17 in1021.7 mb 0.00 in0.0 mm 0.00 in0.0 mm 0.03 in0.8 mm
03:55 PM 45.1°F7.3°C 39.9°F4.4°C 82% 8.0 mph SW12.9 kmh SW 11.0 mph17.7 kmh 30.18 in1022.0 mb 0.00 in0.0 mm 0.00 in0.0 mm 0.03 in0.8 mm
04:00 PM 45.4°F7.4°C 40.2°F4.6°C 82% 3.0 mph SW4.8 kmh SW 7.0 mph11.3 kmh 30.17 in1021.7 mb 0.00 in0.0 mm 0.00 in0.0 mm 0.03 in0.8 mm
04:05 PM 45.9°F7.7°C 40.7°F4.8°C 82% 5.0 mph WSW8.0 kmh WSW 8.0 mph12.9 kmh 30.17 in1021.7 mb 0.00 in0.0 mm 0.00 in0.0 mm 0.03 in0.8 mm
04:10 PM 46.3°F7.9°C 40.5°F4.7°C 80% 5.0 mph SW8.0 kmh SW 10.0 mph16.1 kmh 30.17 in1021.7 mb 0.00 in0.0 mm 0.00 in0.0 mm 0.03 in0.8 mm
04:15 PM 46.5°F8.1°C 40.7°F4.8°C 80% 9.0 mph SW14.5 kmh SW 12.0 mph19.3 kmh 30.17 in1021.7 mb 0.00 in0.0 mm 0.00 in0.0 mm 0.03 in0.8 mm
04:20 PM 46.5°F8.1°C 40.7°F4.8°C 80% 5.0 mph SW8.0 kmh SW 7.0 mph11.3 kmh 30.17 in1021.7 mb 0.00 in0.0 mm 0.00 in0.0 mm 0.03 in0.8 mm
04:25 PM 46.8°F8.2°C 41.0°F5.0°C 80% 4.0 mph SW6.4 kmh SW 6.0 mph9.7 kmh 30.17 in1021.7 mb 0.00 in0.0 mm 0.00 in0.0 mm 0.03 in0.8 mm
04:30 PM 47.2°F8.4°C 41.0°F5.0°C 79% 3.0 mph SW4.8 kmh SW 8.0 mph12.9 kmh 30.17 in1021.7 mb 0.00 in0.0 mm 0.00 in0.0 mm 0.03 in0.8 mm
04:35 PM 47.2°F8.4°C 40.7°F4.8°C 78% 4.0 mph SW6.4 kmh SW 10.0 mph16.1 kmh 30.17 in1021.7 mb 0.00 in0.0 mm 0.00 in0.0 mm 0.03 in0.8 mm
04:40 PM 47.3°F8.5°C 40.8°F4.9°C 78% 7.0 mph SW11.3 kmh SW 8.0 mph12.9 kmh 30.17 in1021.7 mb 0.00 in0.0 mm 0.00 in0.0 mm 0.03 in0.8 mm
04:44 PM 47.3°F8.5°C 40.8°F4.9°C 78% 5.0 mph WSW8.0 kmh WSW 10.0 mph16.1 kmh 30.16 in1021.3 mb 0.00 in0.0 mm 0.00 in0.0 mm 0.03 in0.8 mm
04:50 PM 46.9°F8.3°C 40.4°F4.7°C 78% 7.0 mph SW11.3 kmh SW 9.0 mph14.5 kmh 30.16 in1021.3 mb 0.00 in0.0 mm 0.00 in0.0 mm 0.03 in0.8 mm
04:54 PM 46.8°F8.2°C 40.6°F4.8°C 79% 3.0 mph SSW4.8 kmh SSW 6.0 mph9.7 kmh 30.16 in1021.3 mb 0.00 in0.0 mm 0.00 in0.0 mm 0.03 in0.8 mm
04:59 PM 47.0°F8.3°C 41.2°F5.1°C 80% 1.0 mph SW1.6 kmh SW 4.0 mph6.4 kmh 30.16 in1021.3 mb 0.00 in0.0 mm 0.00 in0.0 mm 0.03 in0.8 mm
05:04 PM 47.6°F8.7°C 41.4°F5.2°C 79% 3.0 mph SW4.8 kmh SW 7.0 mph11.3 kmh 30.16 in1021.3 mb 0.00 in0.0 mm 0.00 in0.0 mm 0.03 in0.8 mm
05:09 PM 48.1°F8.9°C 41.6°F5.3°C 78% 3.0 mph SW4.8 kmh SW 6.0 mph9.7 kmh 30.16 in1021.3 mb 0.00 in0.0 mm 0.00 in0.0 mm 0.03 in0.8 mm
05:15 PM 48.2°F9.0°C 41.3°F5.2°C 77% 2.0 mph SW3.2 kmh SW 9.0 mph14.5 kmh 30.16 in1021.3 mb 0.00 in0.0 mm 0.00 in0.0 mm 0.03 in0.8 mm
05:20 PM 48.4°F9.1°C 41.5°F5.3°C 77% 3.0 mph SW4.8 kmh SW 7.0 mph11.3 kmh 30.16 in1021.3 mb 0.00 in0.0 mm 0.00 in0.0 mm 0.03 in0.8 mm
05:25 PM 48.6°F9.2°C 41.4°F5.2°C 76% 3.0 mph SW4.8 kmh SW 8.0 mph12.9 kmh 30.15 in1021.0 mb 0.00 in0.0 mm 0.00 in0.0 mm 0.03 in0.8 mm
05:30 PM 48.6°F9.2°C 41.4°F5.2°C 76% 3.0 mph WSW4.8 kmh WSW 5.0 mph8.0 kmh 30.15 in1021.0 mb 0.00 in0.0 mm 0.00 in0.0 mm 0.03 in0.8 mm
05:35 PM 48.9°F9.4°C 41.7°F5.4°C 76% 3.0 mph S4.8 kmh S 6.0 mph9.7 kmh 30.15 in1021.0 mb 0.00 in0.0 mm 0.00 in0.0 mm 0.03 in0.8 mm
05:39 PM 48.6°F9.2°C 41.1°F5.1°C 75% 5.0 mph S8.0 kmh S 7.0 mph11.3 kmh 30.15 in1021.0 mb 0.00 in0.0 mm 0.00 in0.0 mm 0.03 in0.8 mm
05:45 PM 48.0°F8.9°C 40.8°F4.9°C 76% 5.0 mph S8.0 kmh S 5.0 mph8.0 kmh 30.15 in1021.0 mb 0.00 in0.0 mm 0.00 in0.0 mm 0.03 in0.8 mm
05:50 PM 47.4°F8.6°C 40.6°F4.8°C 77% 1.0 mph S1.6 kmh S 7.0 mph11.3 kmh 30.15 in1021.0 mb 0.00 in0.0 mm 0.00 in0.0 mm 0.03 in0.8 mm
05:54 PM 47.1°F8.4°C 40.6°F4.8°C 78% Calm Calm 6.0 mph9.7 kmh 30.15 in1021.0 mb 0.00 in0.0 mm 0.00 in0.0 mm 0.03 in0.8 mm
06:00 PM 46.8°F8.2°C 40.3°F4.6°C 78% Calm Calm 4.0 mph6.4 kmh 30.15 in1021.0 mb 0.00 in0.0 mm 0.00 in0.0 mm 0.03 in0.8 mm
06:05 PM 46.6°F8.1°C 40.5°F4.7°C 79% 1.0 mph S1.6 kmh S 6.0 mph9.7 kmh 30.14 in1020.7 mb 0.00 in0.0 mm 0.00 in0.0 mm 0.03 in0.8 mm
06:10 PM 46.6°F8.1°C 40.5°F4.7°C 79% 7.0 mph S11.3 kmh S 7.0 mph11.3 kmh 30.14 in1020.7 mb 0.00 in0.0 mm 0.00 in0.0 mm 0.03 in0.8 mm
06:15 PM 46.1°F7.8°C 40.3°F4.6°C 80% 3.0 mph S4.8 kmh S 6.0 mph9.7 kmh 30.14 in1020.7 mb 0.00 in0.0 mm 0.00 in0.0 mm 0.03 in0.8 mm
06:20 PM 45.9°F7.7°C 40.1°F4.5°C 80% 4.0 mph S6.4 kmh S 8.0 mph12.9 kmh 30.14 in1020.7 mb 0.00 in0.0 mm 0.00 in0.0 mm 0.03 in0.8 mm
06:25 PM 45.7°F7.6°C 39.9°F4.4°C 80% 2.0 mph S3.2 kmh S 5.0 mph8.0 kmh 30.14 in1020.7 mb 0.00 in0.0 mm 0.00 in0.0 mm 0.03 in0.8 mm
06:30 PM 45.6°F7.6°C 40.1°F4.5°C 81% 3.0 mph S4.8 kmh S 5.0 mph8.0 kmh 30.14 in1020.7 mb 0.00 in0.0 mm 0.00 in0.0 mm 0.03 in0.8 mm
06:35 PM 45.5°F7.5°C 40.0°F4.4°C 81% Calm Calm 5.0 mph8.0 kmh 30.14 in1020.7 mb 0.00 in0.0 mm 0.00 in0.0 mm 0.03 in0.8 mm
06:40 PM 45.3°F7.4°C 39.8°F4.3°C 81% Calm Calm 6.0 mph9.7 kmh 30.13 in1020.3 mb 0.00 in0.0 mm 0.00 in0.0 mm 0.03 in0.8 mm
06:45 PM 45.2°F7.3°C 40.0°F4.4°C 82% 2.0 mph S3.2 kmh S 4.0 mph6.4 kmh 30.13 in1020.3 mb 0.00 in0.0 mm 0.00 in0.0 mm 0.03 in0.8 mm
06:49 PM 45.1°F7.3°C 39.9°F4.4°C 82% 4.0 mph S6.4 kmh S 4.0 mph6.4 kmh 30.13 in1020.3 mb 0.00 in0.0 mm 0.00 in0.0 mm 0.03 in0.8 mm
06:55 PM 44.9°F7.2°C 39.8°F4.3°C 82% 3.0 mph S4.8 kmh S 5.0 mph8.0 kmh 30.13 in1020.3 mb 0.00 in0.0 mm 0.00 in0.0 mm 0.03 in0.8 mm
07:00 PM 44.7°F7.1°C 39.9°F4.4°C 83% 1.0 mph S1.6 kmh S 5.0 mph8.0 kmh 30.13 in1020.3 mb 0.00 in0.0 mm 0.00 in0.0 mm 0.03 in0.8 mm
07:05 PM 44.6°F7.0°C 39.8°F4.3°C 83% 1.0 mph S1.6 kmh S 3.0 mph4.8 kmh 30.13 in1020.3 mb 0.00 in0.0 mm 0.00 in0.0 mm 0.03 in0.8 mm
07:10 PM 44.4°F6.9°C 39.6°F4.2°C 83% 4.0 mph S6.4 kmh S 4.0 mph6.4 kmh 30.12 in1020.0 mb 0.00 in0.0 mm 0.00 in0.0 mm 0.03 in0.8 mm
07:15 PM 44.2°F6.8°C 39.7°F4.3°C 84% 4.0 mph S6.4 kmh S 5.0 mph8.0 kmh 30.12 in1020.0 mb 0.00 in0.0 mm 0.00 in0.0 mm 0.03 in0.8 mm
07:20 PM 44.0°F6.7°C 39.5°F4.2°C 84% 1.0 mph SSE1.6 kmh SSE 5.0 mph8.0 kmh 30.13 in1020.3 mb 0.00 in0.0 mm 0.00 in0.0 mm 0.03 in0.8 mm
07:25 PM 43.8°F6.6°C 39.3°F4.1°C 84% Calm Calm 4.0 mph6.4 kmh 30.13 in1020.3 mb 0.00 in0.0 mm 0.00 in0.0 mm 0.03 in0.8 mm
07:30 PM 43.5°F6.4°C 39.0°F3.9°C 84% 2.0 mph SSE3.2 kmh SSE 4.0 mph6.4 kmh 30.12 in1020.0 mb 0.00 in0.0 mm 0.00 in0.0 mm 0.03 in0.8 mm
07:35 PM 43.3°F6.3°C 38.8°F3.8°C 84% Calm Calm 1.0 mph1.6 kmh 30.13 in1020.3 mb 0.00 in0.0 mm 0.00 in0.0 mm 0.03 in0.8 mm
07:39 PM 43.0°F6.1°C 38.5°F3.6°C 84% Calm Calm 2.0 mph3.2 kmh 30.12 in1020.0 mb 0.00 in0.0 mm 0.00 in0.0 mm 0.03 in0.8 mm
07:45 PM 42.7°F5.9°C 38.5°F3.6°C 85% Calm Calm -- 30.12 in1020.0 mb 0.00 in0.0 mm 0.00 in0.0 mm 0.03 in0.8 mm
07:50 PM 42.3°F5.7°C 38.1°F3.4°C 85% Calm Calm -- 30.12 in1020.0 mb 0.00 in0.0 mm 0.00 in0.0 mm 0.03 in0.8 mm
07:54 PM 42.0°F5.6°C 38.1°F3.4°C 86% Calm Calm -- 30.13 in1020.3 mb 0.00 in0.0 mm 0.00 in0.0 mm 0.03 in0.8 mm
08:00 PM 41.9°F5.5°C 38.0°F3.3°C 86% Calm Calm 4.0 mph6.4 kmh 30.13 in1020.3 mb 0.00 in0.0 mm 0.00 in0.0 mm 0.03 in0.8 mm
08:05 PM 41.9°F5.5°C 38.3°F3.5°C 87% Calm Calm 4.0 mph6.4 kmh 30.13 in1020.3 mb 0.00 in0.0 mm 0.00 in0.0 mm 0.03 in0.8 mm
08:10 PM 41.8°F5.4°C 38.2°F3.4°C 87% Calm Calm 6.0 mph9.7 kmh 30.13 in1020.3 mb 0.00 in0.0 mm 0.00 in0.0 mm 0.03 in0.8 mm
08:15 PM 41.6°F5.3°C 38.0°F3.3°C 87% Calm Calm 2.0 mph3.2 kmh 30.13 in1020.3 mb 0.00 in0.0 mm 0.00 in0.0 mm 0.03 in0.8 mm
08:20 PM 41.4°F5.2°C 37.8°F3.2°C 87% 2.0 mph SSE3.2 kmh SSE 4.0 mph6.4 kmh 30.13 in1020.3 mb 0.00 in0.0 mm 0.00 in0.0 mm 0.03 in0.8 mm
08:25 PM 41.2°F5.1°C 37.6°F3.1°C 87% 2.0 mph SSE3.2 kmh SSE 4.0 mph6.4 kmh 30.13 in1020.3 mb 0.00 in0.0 mm 0.00 in0.0 mm 0.03 in0.8 mm
08:30 PM 41.0°F5.0°C 37.4°F3.0°C 87% 1.0 mph SSE1.6 kmh SSE 3.0 mph4.8 kmh 30.13 in1020.3 mb 0.00 in0.0 mm 0.00 in0.0 mm 0.03 in0.8 mm
08:35 PM 40.8°F4.9°C 37.5°F3.1°C 88% Calm Calm 4.0 mph6.4 kmh 30.13 in1020.3 mb 0.00 in0.0 mm 0.00 in0.0 mm 0.03 in0.8 mm
08:40 PM 40.6°F4.8°C 37.3°F2.9°C 88% 2.0 mph SSE3.2 kmh SSE 6.0 mph9.7 kmh 30.12 in1020.0 mb 0.00 in0.0 mm 0.00 in0.0 mm 0.03 in0.8 mm
08:45 PM 40.5°F4.7°C 37.2°F2.9°C 88% 2.0 mph SSE3.2 kmh SSE 3.0 mph4.8 kmh 30.12 in1020.0 mb 0.00 in0.0 mm 0.00 in0.0 mm 0.03 in0.8 mm
08:49 PM 40.4°F4.7°C 37.1°F2.8°C 88% 1.0 mph SSE1.6 kmh SSE 4.0 mph6.4 kmh 30.12 in1020.0 mb 0.00 in0.0 mm 0.00 in0.0 mm 0.03 in0.8 mm
08:55 PM 40.4°F4.7°C 37.1°F2.8°C 88% 2.0 mph SSE3.2 kmh SSE 4.0 mph6.4 kmh 30.12 in1020.0 mb 0.00 in0.0 mm 0.00 in0.0 mm 0.03 in0.8 mm
09:00 PM 40.4°F4.7°C 37.4°F3.0°C 89% 2.0 mph SSE3.2 kmh SSE 5.0 mph8.0 kmh 30.12 in1020.0 mb 0.00 in0.0 mm 0.00 in0.0 mm 0.03 in0.8 mm
09:05 PM 40.3°F4.6°C 37.3°F2.9°C 89% 2.0 mph SSE3.2 kmh SSE 5.0 mph8.0 kmh 30.11 in1019.6 mb 0.00 in0.0 mm 0.00 in0.0 mm 0.03 in0.8 mm
09:10 PM 40.2°F4.6°C 37.2°F2.9°C 89% 2.0 mph SE3.2 kmh SE 4.0 mph6.4 kmh 30.11 in1019.6 mb 0.00 in0.0 mm 0.00 in0.0 mm 0.03 in0.8 mm
09:14 PM 40.2°F4.6°C 37.2°F2.9°C 89% 1.0 mph S1.6 kmh S 3.0 mph4.8 kmh 30.11 in1019.6 mb 0.00 in0.0 mm 0.00 in0.0 mm 0.03 in0.8 mm
09:20 PM 40.2°F4.6°C 37.2°F2.9°C 89% Calm Calm 4.0 mph6.4 kmh 30.11 in1019.6 mb 0.00 in0.0 mm 0.00 in0.0 mm 0.03 in0.8 mm
09:25 PM 40.2°F4.6°C 37.2°F2.9°C 89% 2.0 mph SSE3.2 kmh SSE 6.0 mph9.7 kmh 30.11 in1019.6 mb 0.00 in0.0 mm 0.00 in0.0 mm 0.03 in0.8 mm
09:30 PM 40.2°F4.6°C 37.2°F2.9°C 89% 1.0 mph SSE1.6 kmh SSE 3.0 mph4.8 kmh 30.11 in1019.6 mb 0.00 in0.0 mm 0.00 in0.0 mm 0.03 in0.8 mm
09:35 PM 40.1°F4.5°C 37.1°F2.8°C 89% Calm Calm 3.0 mph4.8 kmh 30.11 in1019.6 mb 0.00 in0.0 mm 0.00 in0.0 mm 0.03 in0.8 mm
09:40 PM 40.2°F4.6°C 37.2°F2.9°C 89% 2.0 mph SSE3.2 kmh SSE 5.0 mph8.0 kmh 30.11 in1019.6 mb 0.00 in0.0 mm 0.00 in0.0 mm 0.03 in0.8 mm
09:45 PM 40.3°F4.6°C 37.3°F2.9°C 89% Calm Calm 3.0 mph4.8 kmh 30.10 in1019.3 mb 0.00 in0.0 mm 0.00 in0.0 mm 0.03 in0.8 mm
09:50 PM 40.4°F4.7°C 37.4°F3.0°C 89% 2.0 mph S3.2 kmh S 5.0 mph8.0 kmh 30.10 in1019.3 mb 0.00 in0.0 mm 0.00 in0.0 mm 0.03 in0.8 mm
09:55 PM 40.5°F4.7°C 37.5°F3.1°C 89% 1.0 mph SSE1.6 kmh SSE 4.0 mph6.4 kmh 30.10 in1019.3 mb 0.00 in0.0 mm 0.00 in0.0 mm 0.03 in0.8 mm
10:00 PM 40.6°F4.8°C 37.9°F3.3°C 90% Calm Calm 4.0 mph6.4 kmh 30.10 in1019.3 mb 0.00 in0.0 mm 0.00 in0.0 mm 0.03 in0.8 mm
10:04 PM 40.7°F4.8°C 38.0°F3.3°C 90% Calm Calm 4.0 mph6.4 kmh 30.10 in1019.3 mb 0.00 in0.0 mm 0.00 in0.0 mm 0.03 in0.8 mm
10:10 PM 40.8°F4.9°C 38.1°F3.4°C 90% 1.0 mph S1.6 kmh S 5.0 mph8.0 kmh 30.10 in1019.3 mb 0.00 in0.0 mm 0.00 in0.0 mm 0.03 in0.8 mm
10:15 PM 40.9°F4.9°C 37.9°F3.3°C 89% Calm Calm 4.0 mph6.4 kmh 30.10 in1019.3 mb 0.00 in0.0 mm 0.00 in0.0 mm 0.03 in0.8 mm
10:20 PM 41.0°F5.0°C 38.3°F3.5°C 90% Calm Calm 5.0 mph8.0 kmh 30.11 in1019.6 mb 0.00 in0.0 mm 0.00 in0.0 mm 0.03 in0.8 mm
10:25 PM 41.0°F5.0°C 38.0°F3.3°C 89% Calm Calm -- 30.10 in1019.3 mb 0.00 in0.0 mm 0.00 in0.0 mm 0.03 in0.8 mm
10:30 PM 40.9°F4.9°C 37.9°F3.3°C 89% Calm Calm 4.0 mph6.4 kmh 30.11 in1019.6 mb 0.00 in0.0 mm 0.00 in0.0 mm 0.03 in0.8 mm
10:35 PM 41.1°F5.1°C 38.1°F3.4°C 89% Calm Calm 3.0 mph4.8 kmh 30.11 in1019.6 mb 0.00 in0.0 mm 0.00 in0.0 mm 0.03 in0.8 mm
10:40 PM 41.1°F5.1°C 38.1°F3.4°C 89% Calm Calm 5.0 mph8.0 kmh 30.11 in1019.6 mb 0.00 in0.0 mm 0.00 in0.0 mm 0.03 in0.8 mm
10:45 PM 41.1°F5.1°C 38.1°F3.4°C 89% 1.0 mph SSE1.6 kmh SSE 4.0 mph6.4 kmh 30.11 in1019.6 mb 0.00 in0.0 mm 0.00 in0.0 mm 0.03 in0.8 mm
10:50 PM 41.0°F5.0°C 38.0°F3.3°C 89% Calm Calm 2.0 mph3.2 kmh 30.11 in1019.6 mb 0.00 in0.0 mm 0.00 in0.0 mm 0.03 in0.8 mm
10:55 PM 41.0°F5.0°C 38.0°F3.3°C 89% Calm Calm 3.0 mph4.8 kmh 30.11 in1019.6 mb 0.00 in0.0 mm 0.00 in0.0 mm 0.03 in0.8 mm
11:00 PM 41.0°F5.0°C 38.0°F3.3°C 89% Calm Calm 2.0 mph3.2 kmh 30.11 in1019.6 mb 0.00 in0.0 mm 0.00 in0.0 mm 0.03 in0.8 mm
11:05 PM 41.0°F5.0°C 38.0°F3.3°C 89% Calm Calm 2.0 mph3.2 kmh 30.11 in1019.6 mb 0.00 in0.0 mm 0.00 in0.0 mm 0.03 in0.8 mm
11:10 PM 40.9°F4.9°C 37.9°F3.3°C 89% Calm Calm -- 30.11 in1019.6 mb 0.00 in0.0 mm 0.00 in0.0 mm 0.03 in0.8 mm
11:15 PM 40.9°F4.9°C 37.9°F3.3°C 89% 1.0 mph SSE1.6 kmh SSE 2.0 mph3.2 kmh 30.11 in1019.6 mb 0.00 in0.0 mm 0.00 in0.0 mm 0.03 in0.8 mm
11:20 PM 40.7°F4.8°C 37.7°F3.2°C 89% Calm Calm 2.0 mph3.2 kmh 30.11 in1019.6 mb 0.00 in0.0 mm 0.00 in0.0 mm 0.03 in0.8 mm
11:25 PM 40.6°F4.8°C 37.6°F3.1°C 89% Calm Calm -- 30.11 in1019.6 mb 0.00 in0.0 mm 0.00 in0.0 mm 0.03 in0.8 mm
11:30 PM 40.6°F4.8°C 37.6°F3.1°C 89% Calm Calm -- 30.11 in1019.6 mb 0.00 in0.0 mm 0.00 in0.0 mm 0.03 in0.8 mm